Date,TemperatureHighF,TemperatureAvgF,TemperatureLowF,DewpointHighF,DewpointAvgF,DewpointLowF,HumidityHigh,HumidityAvg,HumidityLow,PressureMaxIn,PressureMinIn,WindSpeedMaxMPH,WindSpeedAvgMPH,GustSpeedMaxMPH,PrecipitationSumIn
2014-1-1,23,20,13,20,17,10,91,87,82,30.26,30.17,21,9,21,0.00
2014-1-2,15,11,1,11,7,-3,89,83,78,30.51,30.19,23,12,23,0.00
2014-1-3,23,9,-4,16,4,-8,87,80,68,30.52,29.99,30,7,30,0.00
2014-1-4,36,28,22,29,22,16,93,76,62,30.03,29.88,11,6,23,0.00
2014-1-5,23,8,-5,21,5,-12,93,86,71,30.31,30.02,35,20,35,0.00
2014-1-6,-5,-9,-13,-12,-16,-21,73,70,65,30.47,30.30,31,11,33,0.00
2014-1-7,11,0,-8,4,-6,-14,78,74,68,30.45,30.28,17,6,17,0.00
2014-2-20,52,39,36,51,36,31,97,89,78,29.85,29.20,26,12,58,0.73
2014-2-21,42,34,28,31,25,19,91,71,53,29.91,29.52,27,15,44,0.00
2014-2-22,36,30,26,29,24,18,89,77,54,30.13,29.92,12,4,18,0.00
2014-2-23,28,23,20,18,14,11,74,69,63,30.36,30.13,13,10,19,0.00
2014-2-24,26,22,18,16,13,12,80,70,60,30.42,30.30,12,8,18,0.00
2014-2-25,21,15,10,16,9,2,89,77,60,30.37,30.30,22,12,31,0.00
2014-2-26,23,17,0,13,4,-5,77,58,49,30.39,29.85,32,12,32,0.66
2014-2-27,22,11,6,14,0,-5,72,60,48,30.25,29.86,34,10,34,0.00
2014-2-28,39,24,6,25,13,-2,75,64,51,30.22,29.98,21,8,24,0.00
2014-3-1,34,24,13,26,18,10,90,79,68,30.39,30.02,21,10,21,0.00
2014-3-2,13,7,0,10,1,-8,88,75,64,30.53,30.37,20,12,20,0.00
2014-3-3,19,6,-7,6,-4,-14,76,65,52,30.61,30.40,13,4,14,0.00
2014-3-4,36,21,11,16,11,5,81,66,39,30.43,30.19,12,2,12,0.00
2014-3-5,28,24,22,22,18,14,87,78,65,30.42,30.23,22,8,22,0.00
2014-3-6,36,26,16,23,19,12,90,76,51,30.41,30.10,11,2,11,0.00
2014-3-7,52,37,24,36,30,21,94,76,50,30.10,29.89,12,3,12,0.00
2014-3-8,36,34,31,33,31,28,94,90,82,30.31,30.01,14,4,14,0.16
2014-3-9,47,37,24,36,30,22,93,77,64,30.31,29.90,11,2,17,0.00
2014-3-10,57,48,39,46,39,33,92,71,60,29.90,29.69,19,4,19,0.00
2014-3-11,57,44,36,48,39,33,94,84,65,29.71,29.57,27,6,27,0.16
2014-3-12,37,32,24,35,29,21,95,89,74,30.15,29.66,22,11,25,0.57
2014-3-13,50,35,20,39,29,18,92,80,65,30.17,29.88,18,5,19,0.17
2014-3-14,56,46,38,43,36,31,82,67,53,29.96,29.68,37,11,37,0.00
2014-3-15,51,40,31,36,32,27,89,72,47,30.16,29.96,22,6,22,0.00
2014-3-16,33,27,21,29,19,13,87,74,54,30.31,30.15,28,13,28,0.00
2014-3-17,39,28,17,27,20,14,88,72,49,30.19,29.79,15,5,16,0.00
2014-3-18,54,41,32,44,36,26,92,81,67,29.83,29.56,39,12,39,0.00
2014-3-19,47,40,33,46,36,28,95,87,74,30.09,29.56,34,14,34,0.18
2014-3-20,53,41,30,38,33,26,90,74,48,30.09,29.95,13,4,13,0.00
2014-3-21,61,47,35,43,37,30,83,68,46,29.99,29.73,33,8,33,0.00
2014-3-22,40,36,29,33,27,18,82,72,53,30.39,29.99,29,13,33,0.00
2014-3-23,34,27,22,20,16,12,83,62,43,30.51,30.39,22,9,22,0.00
2014-3-24,37,28,23,27,18,14,83,69,47,30.43,30.15,15,4,15,0.00
2014-3-25,32,26,20,29,17,10,92,70,49,30.32,30.12,35,14,35,0.00
2014-3-26,44,33,15,26,19,12,89,59,37,30.37,29.99,27,9,27,0.00
2014-3-27,56,44,36,51,40,25,94,85,54,29.99,29.46,48,11,48,0.47
2014-3-28,46,40,39,41,37,35,91,88,83,29.97,29.56,41,19,45,0.00
2014-3-29,50,40,35,37,33,30,92,79,56,30.26,30.14,13,5,21,0.00
2014-3-30,61,45,29,42,35,26,93,71,45,30.28,30.01,19,6,19,0.00
2014-3-31,66,55,41,47,42,37,86,62,43,30.02,29.67,36,12,36,0.00
2014-4-1,59,43,31,47,31,22,76,62,48,30.11,29.73,37,13,40,0.00
2014-4-2,47,44,39,41,36,31,84,74,66,30.13,29.93,18,7,21,0.05
2014-4-3,43,42,41,39,38,37,93,84,79,29.94,29.80,20,10,20,0.48
2014-4-4,48,40,36,48,36,31,97,83,70,30.11,29.48,29,17,46,0.00
2014-4-5,53,43,34,34,32,29,88,66,44,30.25,30.11,9,3,13,0.00
2014-4-6,57,45,33,38,35,29,89,68,44,30.16,29.92,9,4,19,0.00
2014-4-7,57,50,40,46,38,33,84,67,41,29.91,29.64,18,6,19,0.00
2014-4-8,60,50,40,43,38,33,90,66,37,29.97,29.70,25,11,25,0.00
2014-4-9,64,51,36,38,35,30,86,57,30,30.08,29.86,21,7,21,0.00
2014-4-10,64,57,45,47,39,31,62,51,32,29.98,29.72,28,7,28,0.00
2014-4-11,72,57,36,39,32,28,81,44,20,30.08,29.97,17,3,18,0.00
2014-4-12,80,67,52,60,51,35,73,58,42,30.00,29.62,26,7,26,0.00
2014-4-13,69,64,60,63,59,55,94,81,69,29.73,29.38,25,6,25,0.34
2014-4-14,60,40,32,55,37,28,95,89,82,30.07,29.39,35,15,35,0.16
2014-4-15,42,34,27,28,23,20,85,66,42,30.22,30.07,27,9,27,0.00
2014-4-16,56,44,31,34,29,23,81,58,36,30.25,30.03,36,12,36,0.00
2014-4-17,55,48,42,42,38,33,79,67,58,30.28,30.08,17,6,19,0.00
2014-4-18,66,52,35,41,36,30,92,59,27,30.35,30.23,17,3,18,0.00
2014-4-19,73,56,37,42,35,26,75,48,27,30.33,30.15,18,6,20,0.00
2014-4-20,80,65,49,49,44,39,70,48,29,30.18,30.00,20,5,20,0.00
2014-4-21,72,65,58,61,54,46,92,68,49,30.00,29.83,26,5,26,0.00
2014-4-22,64,52,42,52,40,31,80,65,29,30.04,29.86,23,12,27,0.00
2014-4-23,60,52,39,41,34,28,71,53,31,30.18,29.94,18,5,18,0.02
2014-4-24,70,59,49,54,44,37,92,60,37,29.97,29.55,32,9,32,0.07
2014-4-25,73,60,45,52,46,39,94,64,31,29.89,29.62,30,9,30,0.03
2014-4-26,76,62,47,50,43,32,83,51,35,29.89,29.79,25,8,27,0.00
2014-4-27,77,60,47,62,50,32,92,70,45,29.89,29.58,29,11,29,0.54
2014-4-28,72,60,52,65,57,50,97,89,58,29.64,29.34,36,9,36,0.38
2014-4-29,57,54,52,52,50,45,95,86,69,29.48,29.40,12,3,12,0.00
2014-4-30,52,46,42,47,41,37,94,82,68,29.83,29.67,18,8,28,0.00
2014-5-1,49,47,44,44,42,40,90,85,76,29.91,29.76,16,9,28,0.02
2014-5-2,46,46,46,42,42,42,86,86,86,29.90,29.90,15,11,15,0.00
2014-5-3,71,63,47,49,43,38,80,50,32,29.92,29.73,29,12,29,0.03
2014-5-4,67,57,46,48,41,26,90,58,35,30.05,29.91,23,6,23,0.00
2014-5-5,70,58,47,47,37,22,64,47,31,29.97,29.80,23,9,23,0.00
2014-5-6,79,64,46,59,46,37,72,55,39,29.91,29.68,16,10,26,0.00
2014-5-7,87,74,66,67,61,56,74,64,44,29.75,29.67,11,6,25,0.06
2014-5-8,85,76,65,67,64,60,93,70,46,29.83,29.73,19,5,37,0.45
2014-5-9,72,65,54,64,57,48,94,76,50,29.88,29.66,28,8,28,0.50
2014-5-10,77,65,50,55,50,45,88,61,34,29.95,29.81,20,3,20,0.00
2014-5-11,83,70,59,71,62,54,90,76,61,29.90,29.78,19,5,22,0.01
2014-5-12,88,76,66,71,69,63,94,78,52,29.89,29.72,43,6,43,0.19
2014-5-13,66,55,50,65,52,46,96,89,80,30.20,29.80,22,10,22,0.17
2014-5-14,54,48,45,46,44,42,90,84,69,30.21,30.16,15,7,15,0.00
2014-5-15,57,50,44,46,44,40,93,83,55,30.05,29.98,13,4,22,0.21
2014-5-16,51,45,40,44,41,38,94,86,68,30.13,29.96,13,6,22,0.01
2014-5-17,60,50,38,43,37,31,95,67,36,30.20,30.12,7,2,21,0.01
2014-5-18,68,56,41,45,42,38,88,63,39,30.26,30.15,8,2,19,0.00
2014-5-19,74,63,50,61,52,43,78,66,51,30.19,29.83,31,8,31,0.00
2014-5-20,84,74,65,69,64,60,86,73,56,29.91,29.78,18,3,18,0.00
2014-5-21,87,77,70,72,66,53,88,69,46,29.95,29.77,17,5,17,0.00
2014-5-22,72,64,56,55,52,49,84,66,51,30.17,29.94,19,5,19,0.00
2014-5-23,80,67,53,56,50,46,86,58,32,30.17,30.08,12,2,12,0.00
2014-5-24,80,67,50,56,50,42,72,54,39,30.19,30.06,12,2,12,0.00
2014-5-25,80,71,61,63,57,49,77,62,49,30.10,29.97,14,3,14,0.00
2014-5-26,87,74,62,71,64,58,89,74,51,30.02,29.88,18,3,19,0.12
2014-5-27,83,74,67,70,65,62,89,75,51,29.95,29.85,19,2,19,0.00
2014-5-28,87,73,63,70,66,61,94,79,44,29.96,29.87,16,2,16,0.25
2014-5-29,84,71,61,71,65,58,92,82,61,30.04,29.95,18,4,18,0.00
2014-5-30,86,75,62,70,60,51,86,63,36,30.10,30.01,15,4,16,0.00
2014-5-31,88,76,63,70,63,52,85,65,49,30.11,29.97,14,4,19,0.00
2014-6-1,86,76,68,74,67,59,88,73,58,30.02,29.82,27,4,27,0.46
2014-6-2,84,78,73,70,67,65,88,68,56,29.88,29.77,27,6,31,0.00
2014-6-3,86,76,68,66,62,56,90,65,39,29.98,29.83,17,4,17,0.04
2014-6-4,70,65,64,65,63,61,96,94,85,29.92,29.55,38,6,38,1.44
2014-6-5,75,64,56,62,58,55,95,81,51,29.97,29.87,8,2,15,0.00
2014-6-6,81,70,56,65,60,52,91,71,52,29.98,29.89,11,1,11,0.00
2014-6-7,78,68,62,66,62,59,96,84,60,29.96,29.70,36,7,36,4.94
2014-6-8,76,68,60,66,62,55,94,83,67,30.00,29.80,19,6,19,0.00
2014-6-9,78,68,53,67,57,45,89,70,57,30.01,29.82,12,2,13,0.00
2014-6-10,67,64,60,64,62,59,96,93,83,29.84,29.71,17,5,17,1.20
2014-6-11,69,64,61,65,62,60,96,92,85,29.78,29.67,15,4,15,0.00
2014-6-12,76,67,59,70,62,53,97,85,70,29.90,29.75,28,6,28,0.01
2014-6-13,75,63,50,59,50,44,90,67,39,30.05,29.90,18,4,18,0.00
2014-6-14,77,65,50,57,53,48,96,68,43,30.08,29.89,22,5,22,0.00
2014-6-15,84,72,59,71,62,53,86,73,59,29.96,29.73,30,6,30,0.00
2014-6-16,87,77,65,76,70,63,95,80,62,30.04,29.81,20,4,20,0.00
2014-6-17,88,83,74,76,73,67,86,72,64,29.93,29.80,19,4,21,0.00
2014-6-18,89,80,73,78,74,68,92,81,65,29.93,29.83,17,3,17,0.01
2014-6-19,90,80,70,77,73,68,95,80,61,30.01,29.89,18,3,18,0.64
2014-6-20,85,75,69,74,69,64,97,83,51,29.97,29.91,20,3,20,0.00
2014-6-21,86,74,66,74,68,64,95,81,63,29.94,29.81,20,2,20,0.03
2014-6-22,84,72,64,75,68,62,96,86,68,29.91,29.79,41,2,48,2.36
2014-6-23,80,72,66,74,69,65,97,90,73,29.85,29.78,15,2,15,0.12
2014-6-24,83,75,69,72,68,65,96,80,57,29.91,29.82,17,4,18,0.01
2014-6-25,85,76,66,70,66,64,93,75,49,29.98,29.90,17,3,17,0.00
2014-6-26,85,74,64,72,68,62,96,81,59,30.02,29.90,15,2,15,0.00
2014-6-27,85,76,69,75,70,67,95,82,62,29.96,29.89,20,5,20,0.00
2014-6-28,83,76,70,76,72,68,96,87,75,29.97,29.82,18,5,18,0.01
2014-6-29,84,76,68,77,72,66,95,87,76,29.96,29.80,28,4,28,0.28
2014-6-30,86,76,66,80,72,64,96,90,78,29.89,29.60,43,6,44,1.25
2014-7-1,80,72,67,69,66,63,97,82,60,29.83,29.67,27,6,27,0.22
2014-7-2,67,63,60,63,59,56,94,86,74,30.05,29.83,20,7,20,0.01
2014-7-3,76,66,57,63,58,56,95,79,54,30.20,30.04,15,4,17,0.00
2014-7-4,77,66,53,62,56,51,95,72,44,30.31,30.20,13,1,13,0.00
2014-7-5,74,68,57,65,61,55,95,80,61,30.24,30.03,14,3,14,0.33
2014-7-6,84,74,64,75,69,62,95,85,69,30.03,29.76,16,3,18,0.00
2014-7-7,85,79,73,76,71,66,91,77,54,29.77,29.62,18,4,20,0.00
2014-7-8,78,73,66,72,66,62,92,78,60,29.86,29.59,27,11,27,0.08
2014-7-9,77,70,61,64,61,56,93,76,51,30.05,29.86,19,5,19,0.00
2014-7-10,79,67,56,66,60,54,97,81,56,30.16,30.05,9,1,10,0.00
2014-7-11,81,71,58,70,64,55,89,79,64,30.17,30.01,17,3,17,0.00
2014-7-12,87,79,73,79,73,68,90,83,73,30.06,29.85,36,3,36,0.06
2014-7-13,83,75,69,73,70,67,96,86,66,29.95,29.86,27,3,27,0.37
2014-7-14,78,70,59,72,62,51,97,79,53,29.94,29.82,27,7,27,0.27
2014-7-15,67,59,54,59,54,51,91,82,67,30.01,29.91,22,10,22,0.00
2014-7-16,75,64,52,62,56,50,95,78,47,30.05,30.00,13,2,13,0.00
2014-7-17,78,66,52,63,58,51,96,77,50,30.10,30.03,9,0,9,0.00
2014-7-18,79,68,56,66,60,54,95,77,52,30.14,30.05,11,1,11,0.00
2014-7-19,80,68,55,67,60,53,97,79,52,30.07,29.99,7,0,7,0.00
2014-7-20,79,70,58,68,63,56,95,81,63,30.05,29.98,16,2,16,0.00
2014-7-21,84,73,62,74,67,60,94,81,67,30.07,29.99,14,3,14,0.00
2014-7-22,84,78,68,76,74,66,94,88,76,30.02,29.93,13,2,17,0.00
2014-7-23,79,73,62,76,65,57,94,77,54,30.12,29.95,19,6,19,0.00
2014-7-24,78,66,55,64,57,52,93,74,50,30.16,29.98,14,2,15,0.00
2014-7-25,75,64,58,66,60,55,95,87,71,30.08,29.84,21,3,21,0.44
2014-7-26,81,74,67,77,70,63,97,89,85,29.88,29.76,14,2,16,0.00
2014-7-27,82,75,65,75,66,60,98,74,53,29.92,29.76,36,12,36,0.03
2014-7-28,74,65,57,61,57,53,94,76,52,30.11,29.92,22,7,22,0.00
2014-7-29,78,67,54,63,58,52,93,75,51,30.10,30.02,19,4,19,0.00
2014-7-30,79,69,59,64,60,56,92,75,51,30.06,30.00,19,4,19,0.00
2014-7-31,81,70,57,68,62,55,97,79,53,30.07,30.01,12,1,13,0.00
2014-8-1,81,68,62,68,63,60,97,84,58,30.09,30.01,20,2,23,0.12
2014-8-2,84,71,56,71,64,55,98,80,55,30.15,30.06,8,0,8,0.00
2014-8-3,83,72,59,70,65,57,97,80,58,30.16,30.05,17,1,17,0.00
2014-8-4,84,73,63,72,66,61,96,82,60,30.09,29.97,19,2,19,0.64
2014-8-5,78,71,65,70,67,64,97,90,77,30.03,29.96,15,2,15,0.20
2014-8-6,75,69,62,70,66,61,98,92,79,30.07,29.98,9,1,9,0.02
2014-8-7,70,68,66,67,65,58,96,88,73,30.02,29.94,17,4,17,0.63
2014-8-8,69,68,67,64,63,62,87,85,83,29.96,29.93,12,4,13,0.01
2014-8-9,80,75,65,69,66,63,95,76,64,30.03,29.97,15,4,15,0.00
2014-8-10,81,72,65,74,68,63,96,87,74,30.01,29.91,11,2,11,0.85
2014-8-11,80,73,64,73,68,60,97,87,70,29.93,29.82,27,7,27,0.11
2014-8-12,75,66,58,61,59,55,94,78,56,30.00,29.84,26,10,26,0.00
2014-8-13,79,68,54,65,60,51,92,77,55,30.09,30.00,15,3,15,0.00
2014-8-14,80,70,61,68,64,57,92,80,63,30.06,29.99,10,3,11,0.00
2014-8-15,73,65,56,66,59,51,92,83,69,30.07,29.93,12,2,12,0.00
2014-8-16,72,69,65,69,66,63,96,93,87,29.93,29.85,17,2,17,0.05
2014-8-17,76,70,66,71,68,64,97,92,83,29.92,29.84,13,2,13,0.06
2014-8-18,82,72,63,73,68,62,98,88,70,29.91,29.76,11,1,11,0.00
2014-8-19,83,74,68,74,70,66,97,89,67,29.80,29.71,38,2,38,1.04
2014-8-20,80,71,62,74,69,61,98,92,80,29.94,29.80,14,1,15,0.00
2014-8-21,86,82,71,80,77,70,96,85,74,29.92,29.84,12,1,13,0.00
2014-8-22,85,77,72,79,75,69,97,92,77,29.96,29.82,31,3,31,0.56
2014-8-23,81,76,71,79,73,70,98,91,79,29.97,29.86,29,2,29,0.25
2014-8-24,91,81,70,83,76,68,96,86,70,29.94,29.87,10,3,10,0.00
2014-8-25,93,82,73,83,77,70,98,87,68,30.01,29.91,15,2,15,0.00
2014-8-26,87,78,70,79,73,69,95,88,74,30.07,29.97,17,2,17,0.00
2014-8-27,82,75,69,74,70,67,96,86,72,30.10,30.02,10,2,10,0.00
2014-8-28,82,72,66,75,68,61,97,88,77,30.06,29.94,27,4,27,0.29
2014-8-29,86,74,69,77,71,67,97,89,66,29.96,29.80,26,4,26,0.34
2014-8-30,83,77,70,74,72,69,97,85,70,29.89,29.81,22,2,22,0.01
2014-8-31,85,75,68,77,72,67,98,89,71,29.92,29.79,13,2,13,0.00
2014-9-1,80,74,68,72,69,66,97,84,68,29.86,29.66,23,4,23,0.00
2014-9-2,81,74,64,72,68,62,96,83,61,29.97,29.83,16,3,19,0.00
2014-9-3,82,72,60,72,67,59,98,83,63,30.02,29.90,14,2,15,0.01
2014-9-4,88,78,67,80,73,65,97,84,73,30.01,29.85,19,5,21,0.80
2014-9-5,87,75,61,78,70,58,95,84,69,30.10,29.89,31,5,34,0.01
2014-9-6,73,64,56,61,57,53,94,80,53,30.19,30.08,13,5,14,0.00
2014-9-7,77,64,53,62,56,51,94,76,49,30.22,30.09,10,1,10,0.00
2014-9-8,78,66,52,62,57,50,95,75,47,30.12,29.91,14,2,16,0.01
2014-9-9,71,66,62,68,64,58,97,91,70,30.02,29.78,16,4,21,1.33
2014-9-10,77,71,59,74,68,56,97,91,76,29.89,29.55,26,8,28,2.22
2014-9-11,59,54,51,56,50,46,92,87,79,30.28,29.89,18,8,21,0.00
2014-9-12,54,50,44,49,46,42,94,88,77,30.35,30.25,18,6,19,0.07
2014-9-13,60,48,38,47,42,37,97,82,50,30.41,30.30,11,2,12,0.01
2014-9-14,67,53,39,53,45,37,96,77,47,30.33,30.16,11,1,11,0.00
2014-9-15,60,56,50,58,54,48,97,93,89,30.19,30.01,16,2,16,0.51
2014-9-16,68,55,43,54,48,42,97,80,49,30.24,30.08,9,1,9,0.01
2014-9-17,68,56,45,58,52,44,97,87,65,30.08,29.94,12,1,12,0.00
2014-9-18,73,60,46,58,52,45,98,77,51,30.10,30.01,15,2,15,0.01
2014-9-19,76,63,50,60,55,48,95,76,52,30.12,29.94,18,3,18,0.00
2014-9-20,79,70,59,72,65,56,95,85,74,29.96,29.79,24,4,25,0.00
2014-9-21,72,61,52,68,54,50,93,79,58,30.15,29.79,29,10,30,0.00
2014-9-22,71,56,43,53,47,42,96,77,43,30.32,30.15,8,1,9,0.01
2014-9-23,75,60,44,55,49,42,96,72,40,30.34,30.22,11,2,13,0.00
2014-9-24,77,62,51,56,51,48,91,71,37,30.31,30.20,13,2,13,0.00
2014-9-25,80,67,58,64,58,52,87,73,46,30.26,30.15,13,2,13,0.00
2014-9-26,84,68,56,65,59,53,94,74,45,30.22,30.13,9,2,11,0.00
2014-9-27,83,69,56,64,58,53,93,70,43,30.21,30.08,18,2,18,0.00
2014-9-28,85,68,54,63,57,52,95,73,41,30.14,30.03,10,0,11,0.00
2014-9-29,83,69,55,63,59,53,95,74,46,30.04,29.91,15,1,16,0.00
2014-9-30,63,58,56,59,55,53,94,92,84,30.00,29.91,12,3,13,0.00
2014-10-1,76,68,51,66,62,48,93,82,63,29.95,29.80,14,4,17,0.24
2014-10-2,68,66,64,65,64,63,97,95,92,29.83,29.57,22,2,23,0.56
2014-10-3,64,53,45,64,45,29,98,76,53,29.94,29.54,35,15,35,0.24
2014-10-4,51,44,38,37,34,30,80,68,55,29.88,29.82,30,11,34,0.00
2014-10-5,62,49,39,46,41,35,90,75,47,29.83,29.66,15,1,18,0.00
2014-10-6,64,55,49,49,44,38,91,67,41,29.71,29.60,30,7,33,0.00
2014-10-7,71,59,51,56,49,43,94,72,39,29.92,29.64,33,6,33,0.03
2014-10-8,68,55,45,46,43,38,86,66,36,30.10,29.91,21,5,21,0.00
2014-10-9,61,55,51,54,51,46,95,85,71,30.14,30.05,12,2,12,0.28
2014-10-10,60,52,45,46,43,41,90,73,53,30.17,30.08,13,3,13,0.00
2014-10-11,61,48,38,45,40,35,96,76,44,30.26,30.12,11,1,11,0.00
2014-10-12,56,49,41,55,46,37,97,90,80,30.12,29.84,13,2,13,0.07
2014-10-13,68,60,56,66,60,55,98,97,94,29.86,29.49,32,6,32,0.55
2014-10-14,63,58,53,60,56,52,96,95,89,29.65,29.40,22,6,22,0.83
2014-10-15,54,52,51,52,50,49,96,91,84,29.86,29.65,22,9,22,0.11
2014-10-16,69,58,52,57,52,50,96,83,63,29.89,29.65,11,2,11,0.01
2014-10-17,61,56,51,50,48,46,83,75,65,29.95,29.63,32,12,32,0.00
2014-10-18,53,50,45,47,45,42,93,84,73,30.22,29.95,21,7,21,0.00
2014-10-19,61,50,36,48,44,35,97,80,60,30.23,29.95,16,2,16,0.00
2014-10-20,67,56,47,50,47,43,91,74,50,30.01,29.86,26,7,26,0.00
2014-10-21,59,49,40,46,42,38,95,76,51,30.25,30.00,19,2,19,0.00
2014-10-22,60,46,34,44,39,32,96,77,49,30.36,30.22,13,2,13,0.00
2014-10-23,60,50,38,50,43,35,93,80,63,30.24,30.06,14,2,14,0.01
2014-10-24,65,55,42,56,50,41,97,86,67,30.09,29.93,10,1,10,0.00
2014-10-25,74,59,48,57,48,40,97,71,33,30.02,29.92,16,4,16,0.01
2014-10-26,70,56,42,47,38,34,85,54,28,30.04,29.77,18,4,18,0.00
2014-10-27,76,67,58,63,58,47,94,74,58,29.77,29.56,21,5,21,0.00
2014-10-28,69,55,45,62,42,36,79,62,40,30.05,29.67,33,13,33,0.00
2014-10-29,51,43,34,38,35,31,89,74,57,30.17,30.04,26,8,26,0.00
2014-10-30,48,41,31,43,38,29,95,88,78,30.17,30.05,8,1,8,0.00
2014-10-31,46,40,31,43,29,22,94,66,45,30.42,30.10,31,15,34,0.02
2014-11-1,48,34,24,31,25,20,86,71,48,30.51,30.40,14,4,14,0.00
2014-11-2,50,40,28,32,28,24,88,66,38,30.43,30.17,22,7,22,0.00
2014-11-3,67,54,44,49,39,30,62,55,49,30.17,29.96,16,6,18,0.00
2014-11-4,61,50,43,53,44,39,92,80,53,30.14,29.92,26,7,26,0.04
2014-11-5,63,51,35,45,38,33,95,67,34,30.18,29.91,22,3,22,0.01
2014-11-6,51,42,29,47,36,25,92,80,65,30.28,29.88,38,15,38,0.05
2014-11-7,48,38,25,35,31,22,92,77,56,30.28,29.80,16,3,16,0.00
2014-11-8,49,42,34,41,31,27,79,64,51,30.06,29.77,33,11,38,0.00
2014-11-9,60,45,32,39,34,26,83,65,43,30.02,29.77,21,2,24,0.00
2014-11-10,67,54,42,49,44,36,86,68,50,29.78,29.46,30,7,30,0.00
2014-11-11,57,37,30,47,31,23,90,81,68,30.26,29.58,32,16,32,0.05
2014-11-12,30,26,23,23,18,14,78,70,62,30.41,30.26,23,13,24,0.00
2014-11-13,31,25,19,22,18,15,88,77,57,30.43,30.39,26,11,28,0.00
2014-11-14,27,20,15,18,14,11,88,77,62,30.47,30.40,13,5,15,0.00
2014-11-15,32,24,14,23,17,12,91,77,59,30.44,30.23,5,0,9,0.00
2014-11-16,31,27,17,28,24,14,92,88,83,30.23,30.01,13,3,18,0.00
2014-11-17,21,17,13,13,9,5,85,72,55,30.18,29.99,38,18,40,0.00
2014-11-18,19,14,11,8,7,6,80,74,57,30.26,30.17,20,14,27,0.00
2014-11-19,31,26,19,22,17,12,75,69,62,30.16,29.84,36,16,42,0.00
2014-11-20,32,23,13,18,13,6,80,66,44,30.40,30.15,27,9,27,0.00
2014-11-21,37,25,10,31,13,6,90,63,37,30.49,30.19,20,7,20,0.01
2014-11-22,57,47,33,51,44,30,94,88,80,30.19,29.82,18,4,18,0.02
2014-11-23,53,50,47,51,48,45,97,94,89,29.82,29.14,18,6,18,0.43
2014-11-24,50,34,29,50,31,25,97,91,83,29.94,29.13,42,19,42,0.21
2014-11-25,29,24,19,25,20,15,92,84,80,30.21,29.94,29,10,29,0.00
2014-11-26,31,28,20,28,25,18,94,90,87,30.29,30.08,16,7,16,0.00
2014-11-27,27,20,8,24,17,5,90,87,79,30.50,30.28,22,8,22,0.00
2014-11-28,38,31,13,33,27,10,92,85,78,30.45,29.85,25,8,25,0.00
2014-11-29,56,45,34,49,41,32,95,88,77,29.85,29.62,15,5,15,0.00
2014-11-30,50,37,24,48,35,19,95,91,81,30.37,29.64,24,10,24,0.01
2014-12-1,24,21,15,20,13,9,83,70,56,30.70,30.36,21,9,21,0.00
2014-12-2,30,26,13,25,22,9,89,83,79,30.56,30.14,11,1,12,0.00
2014-12-3,38,29,24,25,22,18,89,74,50,30.43,30.15,16,5,16,0.00
2014-12-4,35,32,26,32,26,19,93,79,65,30.41,30.22,12,4,13,0.00
2014-12-5,40,36,34,38,35,32,96,94,92,30.25,30.13,10,2,10,0.04
2014-12-6,39,33,28,35,31,25,96,91,78,30.65,30.25,18,5,18,0.17
2014-12-7,36,31,25,31,28,23,93,88,82,30.65,30.27,16,4,16,0.00
2014-12-8,41,36,32,40,34,27,96,92,83,30.28,30.06,30,7,30,0.08
2014-12-9,35,33,31,32,30,27,90,87,84,30.43,30.19,20,8,22,0.00
2014-12-10,33,31,28,30,26,24,89,83,78,30.44,30.32,8,1,8,0.00
2014-12-11,32,29,24,26,24,21,92,83,77,30.37,30.30,9,1,9,0.00
2014-12-12,38,35,24,36,32,22,94,89,83,30.39,30.28,5,2,8,0.00
2014-12-13,51,44,37,46,41,35,94,89,82,30.29,30.11,9,2,9,0.00
2014-12-14,48,46,44,47,44,42,97,96,92,30.12,30.08,13,3,13,0.00
2014-12-15,49,47,44,48,46,43,98,97,96,29.96,29.63,25,8,33,0.22
2014-12-16,44,34,23,43,32,20,97,92,87,30.28,29.65,36,16,37,0.07
2014-12-17,28,22,19,23,19,16,91,86,80,30.37,30.28,21,7,21,0.00
2014-12-18,25,20,16,22,18,14,93,91,88,30.36,30.31,0,0,0,0.00
2014-12-19,34,29,17,26,24,15,93,81,69,30.38,30.29,5,0,5,0.00
2014-12-20,35,32,27,32,29,24,91,89,83,30.31,30.24,11,3,11,0.00
2014-12-21,39,36,34,35,33,31,93,90,85,30.24,29.96,20,6,20,0.01
2014-12-22,47,40,35,46,38,32,97,94,88,29.96,29.49,17,7,19,0.50
2014-12-23,48,42,33,46,39,31,97,87,69,29.77,29.48,25,2,25,0.00
2014-12-24,37,36,34,35,34,32,96,93,85,29.80,29.59,23,7,23,0.02
2014-12-25,48,40,35,38,34,30,89,82,64,30.00,29.80,25,5,25,0.00
2014-12-26,53,44,38,45,40,35,94,85,72,30.05,29.98,14,4,15,0.00
2014-12-27,49,39,28,47,36,24,95,87,79,30.20,29.96,32,11,32,0.01
2014-12-28,35,27,22,24,22,19,90,81,60,30.29,30.19,17,3,19,0.00
2014-12-29,36,27,19,26,22,16,93,83,62,30.56,30.28,13,4,14,0.00
2014-12-30,22,16,10,17,8,2,84,72,48,30.77,30.55,18,10,18,0.00
2014-12-31,23,14,4,8,4,0,82,65,47,30.74,30.31,26,9,26,0.00
2015-1-1,31,24,17,19,14,8,73,65,57,30.31,30.10,28,8,28,0.00
2015-1-2,37,29,18,31,22,13,90,74,54,30.35,30.12,13,1,13,0.05